In Rescue
 
Open Full Screen Window  High Contrast Mode
Wind Gusting 17 knots
12
May 20, 2019 1:39 PM CDT
Weather Information
Wind Direction
  170 °
Wind Speed
  12 kt (14 mph)
Wind Gust
  17 kt (20 mph)
Altimeter
30.14 in
Visibility
10 SM
Temperature
12° C
54° F
Dewpoint
01° C
34° F
Humidity
47%
1hr Rain Fall
00.00 in.
24hr Rain Fall
00.04 in.
Sky Condition
Clear
VFR

METAR KTWM 201839Z AUTO 17012G17KT 10SM CLR 12/01 A3014 RMK AO2

FAA Disclaimer: The data displayed is for advisory purposes only and is not to be used for flight planning or operations.